sensor_id;sensor_type;location;lat;lon;timestamp;temperature;humidity
2363;DHT22;64265;51.664;7.626;2023-04-03T00:00:39;21.30;70.80
2363;DHT22;64265;51.664;7.626;2023-04-03T00:03:05;21.40;70.90
2363;DHT22;64265;51.664;7.626;2023-04-03T00:05:32;21.30;70.80
2363;DHT22;64265;51.664;7.626;2023-04-03T00:07:59;21.30;70.80
2363;DHT22;64265;51.664;7.626;2023-04-03T00:10:27;21.30;70.80
2363;DHT22;64265;51.664;7.626;2023-04-03T00:12:55;21.30;70.90
2363;DHT22;64265;51.664;7.626;2023-04-03T00:15:22;21.30;70.90
2363;DHT22;64265;51.664;7.626;2023-04-03T00:17:48;21.30;70.90
2363;DHT22;64265;51.664;7.626;2023-04-03T00:20:15;21.30;70.80
2363;DHT22;64265;51.664;7.626;2023-04-03T00:22:42;21.30;70.80
2363;DHT22;64265;51.664;7.626;2023-04-03T00:25:09;21.30;70.80
2363;DHT22;64265;51.664;7.626;2023-04-03T00:27:36;21.30;70.80
2363;DHT22;64265;51.664;7.626;2023-04-03T00:30:06;21.30;71.60
2363;DHT22;64265;51.664;7.626;2023-04-03T00:32:33;21.30;70.80
2363;DHT22;64265;51.664;7.626;2023-04-03T00:35:00;21.20;70.80
2363;DHT22;64265;51.664;7.626;2023-04-03T00:37:27;21.20;70.80
2363;DHT22;64265;51.664;7.626;2023-04-03T00:39:53;21.30;70.90
2363;DHT22;64265;51.664;7.626;2023-04-03T00:42:20;21.20;70.70
2363;DHT22;64265;51.664;7.626;2023-04-03T00:45:22;21.20;70.80
2363;DHT22;64265;51.664;7.626;2023-04-03T00:47:49;21.20;70.80
2363;DHT22;64265;51.664;7.626;2023-04-03T00:50:17;21.20;70.80
2363;DHT22;64265;51.664;7.626;2023-04-03T00:52:44;21.20;70.80
2363;DHT22;64265;51.664;7.626;2023-04-03T00:55:14;21.20;70.80
2363;DHT22;64265;51.664;7.626;2023-04-03T00:57:42;21.20;70.90
2363;DHT22;64265;51.664;7.626;2023-04-03T01:00:12;21.20;70.90
2363;DHT22;64265;51.664;7.626;2023-04-03T01:02:41;21.20;70.80
2363;DHT22;64265;51.664;7.626;2023-04-03T01:05:08;21.20;70.90
2363;DHT22;64265;51.664;7.626;2023-04-03T01:07:35;21.20;70.80
2363;DHT22;64265;51.664;7.626;2023-04-03T01:10:05;21.20;70.90
2363;DHT22;64265;51.664;7.626;2023-04-03T01:12:34;21.20;70.90
2363;DHT22;64265;51.664;7.626;2023-04-03T01:15:04;21.20;70.90
2363;DHT22;64265;51.664;7.626;2023-04-03T01:17:34;21.20;70.90
2363;DHT22;64265;51.664;7.626;2023-04-03T01:23:22;21.20;71.00
2363;DHT22;64265;51.664;7.626;2023-04-03T01:25:53;21.10;70.90
2363;DHT22;64265;51.664;7.626;2023-04-03T01:28:22;21.20;71.00
2363;DHT22;64265;51.664;7.626;2023-04-03T01:30:53;21.20;70.90
2363;DHT22;64265;51.664;7.626;2023-04-03T01:33:24;21.20;70.90
2363;DHT22;64265;51.664;7.626;2023-04-03T01:35:51;21.10;70.90
2363;DHT22;64265;51.664;7.626;2023-04-03T01:38:17;21.10;70.90
2363;DHT22;64265;51.664;7.626;2023-04-03T01:40:44;21.10;70.90
2363;DHT22;64265;51.664;7.626;2023-04-03T01:43:11;21.10;70.90
2363;DHT22;64265;51.664;7.626;2023-04-03T01:45:38;21.10;70.90
2363;DHT22;64265;51.664;7.626;2023-04-03T01:48:05;21.10;70.90
2363;DHT22;64265;51.664;7.626;2023-04-03T01:50:33;21.10;70.90
2363;DHT22;64265;51.664;7.626;2023-04-03T01:53:00;21.10;71.00
2363;DHT22;64265;51.664;7.626;2023-04-03T01:55:26;21.10;71.00
2363;DHT22;64265;51.664;7.626;2023-04-03T01:57:53;21.10;71.20
2363;DHT22;64265;51.664;7.626;2023-04-03T02:00:20;21.10;71.20
2363;DHT22;64265;51.664;7.626;2023-04-03T02:02:47;21.10;71.20
2363;DHT22;64265;51.664;7.626;2023-04-03T02:05:14;21.10;71.20
2363;DHT22;64265;51.664;7.626;2023-04-03T02:07:42;21.10;71.20
2363;DHT22;64265;51.664;7.626;2023-04-03T02:10:09;21.10;71.20
2363;DHT22;64265;51.664;7.626;2023-04-03T02:12:35;21.10;71.20
2363;DHT22;64265;51.664;7.626;2023-04-03T02:15:03;21.10;71.20
2363;DHT22;64265;51.664;7.626;2023-04-03T02:17:30;21.10;71.20
2363;DHT22;64265;51.664;7.626;2023-04-03T02:19:56;21.10;71.20
2363;DHT22;64265;51.664;7.626;2023-04-03T02:22:23;21.10;71.20
2363;DHT22;64265;51.664;7.626;2023-04-03T02:24:51;21.10;71.30
2363;DHT22;64265;51.664;7.626;2023-04-03T02:27:18;21.10;71.30
2363;DHT22;64265;51.664;7.626;2023-04-03T02:29:45;21.10;71.20
2363;DHT22;64265;51.664;7.626;2023-04-03T02:32:11;21.10;71.20
2363;DHT22;64265;51.664;7.626;2023-04-03T02:34:38;21.10;71.20
2363;DHT22;64265;51.664;7.626;2023-04-03T02:37:05;21.10;71.30
2363;DHT22;64265;51.664;7.626;2023-04-03T02:39:31;21.00;71.20
2363;DHT22;64265;51.664;7.626;2023-04-03T02:41:59;21.00;71.10
2363;DHT22;64265;51.664;7.626;2023-04-03T02:44:26;21.10;71.30
2363;DHT22;64265;51.664;7.626;2023-04-03T02:46:53;21.10;71.30
2363;DHT22;64265;51.664;7.626;2023-04-03T02:49:20;21.10;71.20
2363;DHT22;64265;51.664;7.626;2023-04-03T02:51:46;21.00;71.10
2363;DHT22;64265;51.664;7.626;2023-04-03T02:54:13;21.00;71.20
2363;DHT22;64265;51.664;7.626;2023-04-03T02:56:40;21.00;71.20
2363;DHT22;64265;51.664;7.626;2023-04-03T02:59:08;21.00;71.20
2363;DHT22;64265;51.664;7.626;2023-04-03T03:01:35;21.00;71.20
2363;DHT22;64265;51.664;7.626;2023-04-03T03:04:02;21.00;71.20
2363;DHT22;64265;51.664;7.626;2023-04-03T03:06:29;21.00;71.30
2363;DHT22;64265;51.664;7.626;2023-04-03T03:08:55;21.00;71.20
2363;DHT22;64265;51.664;7.626;2023-04-03T03:11:22;21.00;71.30
2363;DHT22;64265;51.664;7.626;2023-04-03T03:13:49;21.00;71.40
2363;DHT22;64265;51.664;7.626;2023-04-03T03:16:17;21.00;71.40
2363;DHT22;64265;51.664;7.626;2023-04-03T03:18:43;21.00;71.40
2363;DHT22;64265;51.664;7.626;2023-04-03T03:21:11;21.00;71.40
2363;DHT22;64265;51.664;7.626;2023-04-03T03:23:37;21.00;71.50
2363;DHT22;64265;51.664;7.626;2023-04-03T03:26:07;21.00;71.50
2363;DHT22;64265;51.664;7.626;2023-04-03T03:28:35;21.00;71.50
2363;DHT22;64265;51.664;7.626;2023-04-03T03:31:03;21.00;71.50
2363;DHT22;64265;51.664;7.626;2023-04-03T03:33:32;21.00;71.50
2363;DHT22;64265;51.664;7.626;2023-04-03T03:35:59;21.00;71.50
2363;DHT22;64265;51.664;7.626;2023-04-03T03:38:26;21.00;71.50
2363;DHT22;64265;51.664;7.626;2023-04-03T03:40:53;21.00;71.50
2363;DHT22;64265;51.664;7.626;2023-04-03T03:43:20;21.00;71.50
2363;DHT22;64265;51.664;7.626;2023-04-03T03:45:50;21.00;71.50
2363;DHT22;64265;51.664;7.626;2023-04-03T03:48:17;21.00;71.60
2363;DHT22;64265;51.664;7.626;2023-04-03T03:50:46;21.00;71.60
2363;DHT22;64265;51.664;7.626;2023-04-03T03:53:13;21.00;71.60
2363;DHT22;64265;51.664;7.626;2023-04-03T03:55:40;21.00;71.60
2363;DHT22;64265;51.664;7.626;2023-04-03T03:58:07;21.00;71.70
2363;DHT22;64265;51.664;7.626;2023-04-03T04:00:34;21.00;71.60
2363;DHT22;64265;51.664;7.626;2023-04-03T04:03:00;21.00;71.60
2363;DHT22;64265;51.664;7.626;2023-04-03T04:05:27;21.00;71.60
2363;DHT22;64265;51.664;7.626;2023-04-03T04:07:55;21.00;71.60
2363;DHT22;64265;51.664;7.626;2023-04-03T04:10:22;21.00;71.70
2363;DHT22;64265;51.664;7.626;2023-04-03T04:12:49;21.00;71.70
2363;DHT22;64265;51.664;7.626;2023-04-03T04:15:16;21.00;71.70
2363;DHT22;64265;51.664;7.626;2023-04-03T04:17:43;21.00;71.70
2363;DHT22;64265;51.664;7.626;2023-04-03T04:20:10;21.00;71.70
2363;DHT22;64265;51.664;7.626;2023-04-03T04:22:37;20.90;71.60
2363;DHT22;64265;51.664;7.626;2023-04-03T04:25:06;20.90;71.70
2363;DHT22;64265;51.664;7.626;2023-04-03T04:27:33;20.90;71.60
2363;DHT22;64265;51.664;7.626;2023-04-03T04:30:00;20.90;71.70
2363;DHT22;64265;51.664;7.626;2023-04-03T04:32:26;20.90;71.60
2363;DHT22;64265;51.664;7.626;2023-04-03T04:34:53;20.90;71.70
2363;DHT22;64265;51.664;7.626;2023-04-03T04:37:20;20.90;71.70
2363;DHT22;64265;51.664;7.626;2023-04-03T04:39:46;20.90;71.70
2363;DHT22;64265;51.664;7.626;2023-04-03T04:42:14;20.90;71.70
2363;DHT22;64265;51.664;7.626;2023-04-03T04:44:42;20.90;71.70
2363;DHT22;64265;51.664;7.626;2023-04-03T04:47:09;20.90;71.60
2363;DHT22;64265;51.664;7.626;2023-04-03T04:49:35;20.90;71.70
2363;DHT22;64265;51.664;7.626;2023-04-03T04:52:02;20.90;71.70
2363;DHT22;64265;51.664;7.626;2023-04-03T04:54:29;20.90;71.70
2363;DHT22;64265;51.664;7.626;2023-04-03T04:56:56;20.90;71.70
2363;DHT22;64265;51.664;7.626;2023-04-03T04:59:24;20.90;71.80
2363;DHT22;64265;51.664;7.626;2023-04-03T05:01:50;20.90;71.80
2363;DHT22;64265;51.664;7.626;2023-04-03T05:04:17;20.90;71.80
2363;DHT22;64265;51.664;7.626;2023-04-03T05:06:44;20.90;71.80
2363;DHT22;64265;51.664;7.626;2023-04-03T05:09:11;20.90;71.70
2363;DHT22;64265;51.664;7.626;2023-04-03T05:11:38;20.90;71.80
2363;DHT22;64265;51.664;7.626;2023-04-03T05:14:04;20.90;71.70
2363;DHT22;64265;51.664;7.626;2023-04-03T05:16:33;20.90;71.80
2363;DHT22;64265;51.664;7.626;2023-04-03T05:19:00;20.90;71.70
2363;DHT22;64265;51.664;7.626;2023-04-03T05:21:27;20.90;71.80
2363;DHT22;64265;51.664;7.626;2023-04-03T05:23:57;20.90;71.80
2363;DHT22;64265;51.664;7.626;2023-04-03T05:26:24;20.90;71.90
2363;DHT22;64265;51.664;7.626;2023-04-03T05:28:51;20.90;71.90
2363;DHT22;64265;51.664;7.626;2023-04-03T05:31:17;20.90;71.90
2363;DHT22;64265;51.664;7.626;2023-04-03T05:33:45;20.90;71.80
2363;DHT22;64265;51.664;7.626;2023-04-03T05:36:12;21.00;72.00
2363;DHT22;64265;51.664;7.626;2023-04-03T05:38:39;21.00;72.00
2363;DHT22;64265;51.664;7.626;2023-04-03T05:41:06;21.00;72.00
2363;DHT22;64265;51.664;7.626;2023-04-03T05:43:33;21.00;72.00
2363;DHT22;64265;51.664;7.626;2023-04-03T05:46:00;21.00;71.90
2363;DHT22;64265;51.664;7.626;2023-04-03T05:48:26;21.00;71.90
2363;DHT22;64265;51.664;7.626;2023-04-03T05:50:54;21.00;71.90
2363;DHT22;64265;51.664;7.626;2023-04-03T05:53:25;21.00;71.90
2363;DHT22;64265;51.664;7.626;2023-04-03T05:55:52;21.00;71.90
2363;DHT22;64265;51.664;7.626;2023-04-03T05:58:19;20.90;71.80
2363;DHT22;64265;51.664;7.626;2023-04-03T06:00:46;20.90;71.80
2363;DHT22;64265;51.664;7.626;2023-04-03T06:03:13;20.90;71.80
2363;DHT22;64265;51.664;7.626;2023-04-03T06:05:39;20.90;71.80
2363;DHT22;64265;51.664;7.626;2023-04-03T06:08:08;21.00;72.00
2363;DHT22;64265;51.664;7.626;2023-04-03T06:10:35;21.00;72.00
2363;DHT22;64265;51.664;7.626;2023-04-03T06:13:02;21.00;72.00
2363;DHT22;64265;51.664;7.626;2023-04-03T06:15:29;21.00;72.00
2363;DHT22;64265;51.664;7.626;2023-04-03T06:17:56;21.00;72.00
2363;DHT22;64265;51.664;7.626;2023-04-03T06:20:22;21.10;72.00
2363;DHT22;64265;51.664;7.626;2023-04-03T06:22:49;21.10;72.00
2363;DHT22;64265;51.664;7.626;2023-04-03T06:25:17;21.10;71.90
2363;DHT22;64265;51.664;7.626;2023-04-03T06:27:45;21.10;71.90
2363;DHT22;64265;51.664;7.626;2023-04-03T06:30:12;21.20;72.00
2363;DHT22;64265;51.664;7.626;2023-04-03T06:32:39;21.20;71.90
2363;DHT22;64265;51.664;7.626;2023-04-03T06:35:06;21.20;71.90
2363;DHT22;64265;51.664;7.626;2023-04-03T06:37:33;21.20;71.90
2363;DHT22;64265;51.664;7.626;2023-04-03T06:40:01;21.20;71.90
2363;DHT22;64265;51.664;7.626;2023-04-03T06:42:29;21.30;72.00
2363;DHT22;64265;51.664;7.626;2023-04-03T06:44:56;21.30;72.00
2363;DHT22;64265;51.664;7.626;2023-04-03T06:47:23;21.30;72.00
2363;DHT22;64265;51.664;7.626;2023-04-03T06:49:49;21.30;71.90
2363;DHT22;64265;51.664;7.626;2023-04-03T06:52:16;21.30;72.10
2363;DHT22;64265;51.664;7.626;2023-04-03T06:54:43;21.30;72.00
2363;DHT22;64265;51.664;7.626;2023-04-03T06:57:10;21.40;71.90
2363;DHT22;64265;51.664;7.626;2023-04-03T06:59:38;21.40;71.80
2363;DHT22;64265;51.664;7.626;2023-04-03T07:02:06;21.40;71.60
2363;DHT22;64265;51.664;7.626;2023-04-03T07:04:32;21.40;71.50
2363;DHT22;64265;51.664;7.626;2023-04-03T07:06:59;21.40;71.40
2363;DHT22;64265;51.664;7.626;2023-04-03T07:09:26;21.40;71.10
2363;DHT22;64265;51.664;7.626;2023-04-03T07:11:53;21.50;71.20
2363;DHT22;64265;51.664;7.626;2023-04-03T07:14:19;21.50;71.10
2363;DHT22;64265;51.664;7.626;2023-04-03T07:16:48;21.50;71.10
2363;DHT22;64265;51.664;7.626;2023-04-03T07:19:15;21.50;71.00
2363;DHT22;64265;51.664;7.626;2023-04-03T07:21:43;21.50;70.90
2363;DHT22;64265;51.664;7.626;2023-04-03T07:24:10;21.50;70.80
2363;DHT22;64265;51.664;7.626;2023-04-03T07:26:36;21.60;71.10
2363;DHT22;64265;51.664;7.626;2023-04-03T07:29:03;21.60;70.90
2363;DHT22;64265;51.664;7.626;2023-04-03T07:31:30;21.60;70.80
2363;DHT22;64265;51.664;7.626;2023-04-03T07:33:58;21.50;68.90
2363;DHT22;64265;51.664;7.626;2023-04-03T07:36:24;21.50;69.40
2363;DHT22;64265;51.664;7.626;2023-04-03T07:38:51;21.60;70.10
2363;DHT22;64265;51.664;7.626;2023-04-03T07:41:19;21.60;69.90
2363;DHT22;64265;51.664;7.626;2023-04-03T07:43:47;21.60;69.80
2363;DHT22;64265;51.664;7.626;2023-04-03T07:46:15;21.60;69.80
2363;DHT22;64265;51.664;7.626;2023-04-03T07:48:43;21.60;69.80
2363;DHT22;64265;51.664;7.626;2023-04-03T07:51:11;21.60;69.70
2363;DHT22;64265;51.664;7.626;2023-04-03T07:53:38;21.60;69.60
2363;DHT22;64265;51.664;7.626;2023-04-03T07:56:05;21.60;69.70
2363;DHT22;64265;51.664;7.626;2023-04-03T07:58:32;21.70;69.80
2363;DHT22;64265;51.664;7.626;2023-04-03T08:00:59;21.70;69.80
2363;DHT22;64265;51.664;7.626;2023-04-03T08:03:26;21.70;69.80
2363;DHT22;64265;51.664;7.626;2023-04-03T08:05:52;21.70;69.80
2363;DHT22;64265;51.664;7.626;2023-04-03T08:08:22;21.70;69.80
2363;DHT22;64265;51.664;7.626;2023-04-03T08:10:50;21.70;69.70
2363;DHT22;64265;51.664;7.626;2023-04-03T08:13:18;21.70;69.70
2363;DHT22;64265;51.664;7.626;2023-04-03T08:15:44;21.70;69.60
2363;DHT22;64265;51.664;7.626;2023-04-03T08:18:12;21.70;69.50
2363;DHT22;64265;51.664;7.626;2023-04-03T08:20:38;21.70;69.50
2363;DHT22;64265;51.664;7.626;2023-04-03T08:23:06;21.70;69.40
2363;DHT22;64265;51.664;7.626;2023-04-03T08:25:37;21.70;69.30
2363;DHT22;64265;51.664;7.626;2023-04-03T08:28:03;21.70;69.30
2363;DHT22;64265;51.664;7.626;2023-04-03T08:30:30;21.70;69.40
2363;DHT22;64265;51.664;7.626;2023-04-03T08:32:59;21.70;69.30
2363;DHT22;64265;51.664;7.626;2023-04-03T08:35:26;21.80;69.40
2363;DHT22;64265;51.664;7.626;2023-04-03T08:37:53;21.70;68.70
2363;DHT22;64265;51.664;7.626;2023-04-03T08:40:19;21.70;67.90
2363;DHT22;64265;51.664;7.626;2023-04-03T08:42:54;21.70;68.20
2363;DHT22;64265;51.664;7.626;2023-04-03T08:45:30;21.70;68.20
2363;DHT22;64265;51.664;7.626;2023-04-03T08:48:04;21.80;68.50
2363;DHT22;64265;51.664;7.626;2023-04-03T08:50:37;21.80;68.60
2363;DHT22;64265;51.664;7.626;2023-04-03T08:53:06;21.80;68.70
2363;DHT22;64265;51.664;7.626;2023-04-03T08:55:42;21.80;68.70
2363;DHT22;64265;51.664;7.626;2023-04-03T08:58:12;21.90;68.90
2363;DHT22;64265;51.664;7.626;2023-04-03T09:00:44;21.90;69.00
2363;DHT22;64265;51.664;7.626;2023-04-03T09:03:13;21.90;69.20
2363;DHT22;64265;51.664;7.626;2023-04-03T09:05:45;21.90;69.20
2363;DHT22;64265;51.664;7.626;2023-04-03T09:08:21;22.00;69.30
2363;DHT22;64265;51.664;7.626;2023-04-03T09:10:49;22.00;69.30
2363;DHT22;64265;51.664;7.626;2023-04-03T09:13:26;22.00;69.30
2363;DHT22;64265;51.664;7.626;2023-04-03T09:15:57;22.00;69.30
2363;DHT22;64265;51.664;7.626;2023-04-03T09:18:28;22.00;69.30
2363;DHT22;64265;51.664;7.626;2023-04-03T09:21:03;22.10;69.40
2363;DHT22;64265;51.664;7.626;2023-04-03T09:23:41;22.10;69.50
2363;DHT22;64265;51.664;7.626;2023-04-03T09:26:13;22.10;69.40
2363;DHT22;64265;51.664;7.626;2023-04-03T09:28:42;22.10;69.30
2363;DHT22;64265;51.664;7.626;2023-04-03T09:31:18;22.10;69.50
2363;DHT22;64265;51.664;7.626;2023-04-03T09:33:47;22.10;69.40
2363;DHT22;64265;51.664;7.626;2023-04-03T09:36:40;22.10;69.40
2363;DHT22;64265;51.664;7.626;2023-04-03T09:39:11;22.20;69.50
2363;DHT22;64265;51.664;7.626;2023-04-03T09:41:38;22.20;69.60
2363;DHT22;64265;51.664;7.626;2023-04-03T09:44:21;22.20;69.60
2363;DHT22;64265;51.664;7.626;2023-04-03T09:46:48;22.20;69.60
2363;DHT22;64265;51.664;7.626;2023-04-03T09:49:14;22.20;69.60
2363;DHT22;64265;51.664;7.626;2023-04-03T09:51:42;22.20;69.50
2363;DHT22;64265;51.664;7.626;2023-04-03T09:54:33;22.20;69.60
2363;DHT22;64265;51.664;7.626;2023-04-03T09:57:04;22.20;69.40
2363;DHT22;64265;51.664;7.626;2023-04-03T09:59:32;22.20;69.50
2363;DHT22;64265;51.664;7.626;2023-04-03T10:02:00;22.30;69.70
2363;DHT22;64265;51.664;7.626;2023-04-03T10:04:38;22.30;69.60
2363;DHT22;64265;51.664;7.626;2023-04-03T10:07:26;22.30;69.50
2363;DHT22;64265;51.664;7.626;2023-04-03T10:09:55;22.40;69.60
2363;DHT22;64265;51.664;7.626;2023-04-03T10:12:22;22.40;69.60
2363;DHT22;64265;51.664;7.626;2023-04-03T10:14:55;22.40;69.60
2363;DHT22;64265;51.664;7.626;2023-04-03T10:17:35;22.40;69.50
2363;DHT22;64265;51.664;7.626;2023-04-03T10:20:07;22.40;69.60
2363;DHT22;64265;51.664;7.626;2023-04-03T10:22:42;22.40;69.60
2363;DHT22;64265;51.664;7.626;2023-04-03T10:25:19;22.50;69.60
2363;DHT22;64265;51.664;7.626;2023-04-03T10:27:53;22.50;69.50
2363;DHT22;64265;51.664;7.626;2023-04-03T10:30:46;22.50;69.40
2363;DHT22;64265;51.664;7.626;2023-04-03T10:33:23;22.50;69.30
2363;DHT22;64265;51.664;7.626;2023-04-03T10:36:09;22.50;69.40
2363;DHT22;64265;51.664;7.626;2023-04-03T10:38:46;22.60;69.40
2363;DHT22;64265;51.664;7.626;2023-04-03T10:41:20;22.50;69.30
2363;DHT22;64265;51.664;7.626;2023-04-03T10:43:56;22.60;69.40
2363;DHT22;64265;51.664;7.626;2023-04-03T10:46:28;22.60;69.30
2363;DHT22;64265;51.664;7.626;2023-04-03T10:49:10;22.50;69.30
2363;DHT22;64265;51.664;7.626;2023-04-03T10:51:41;22.50;69.20
2363;DHT22;64265;51.664;7.626;2023-04-03T10:54:19;22.60;69.30
2363;DHT22;64265;51.664;7.626;2023-04-03T10:56:48;22.60;69.30
2363;DHT22;64265;51.664;7.626;2023-04-03T10:59:22;22.60;69.30
2363;DHT22;64265;51.664;7.626;2023-04-03T11:01:53;22.60;69.40
2363;DHT22;64265;51.664;7.626;2023-04-03T11:04:23;22.60;69.20
2363;DHT22;64265;51.664;7.626;2023-04-03T11:06:56;22.60;69.20
2363;DHT22;64265;51.664;7.626;2023-04-03T11:09:28;22.60;69.20
2363;DHT22;64265;51.664;7.626;2023-04-03T11:12:01;22.60;69.10
2363;DHT22;64265;51.664;7.626;2023-04-03T11:14:32;22.60;69.00
2363;DHT22;64265;51.664;7.626;2023-04-03T11:17:05;22.60;69.00
2363;DHT22;64265;51.664;7.626;2023-04-03T11:19:36;22.60;69.00
2363;DHT22;64265;51.664;7.626;2023-04-03T11:22:11;22.60;69.00
2363;DHT22;64265;51.664;7.626;2023-04-03T11:24:43;22.60;69.00
2363;DHT22;64265;51.664;7.626;2023-04-03T11:27:17;22.60;68.80
2363;DHT22;64265;51.664;7.626;2023-04-03T11:29:49;22.60;69.00
2363;DHT22;64265;51.664;7.626;2023-04-03T11:32:31;22.60;68.80
2363;DHT22;64265;51.664;7.626;2023-04-03T11:35:02;22.60;68.80
2363;DHT22;64265;51.664;7.626;2023-04-03T11:37:34;22.60;68.80
2363;DHT22;64265;51.664;7.626;2023-04-03T11:40:05;22.60;68.70
2363;DHT22;64265;51.664;7.626;2023-04-03T11:42:36;22.60;68.60
2363;DHT22;64265;51.664;7.626;2023-04-03T11:48:06;22.60;68.50
2363;DHT22;64265;51.664;7.626;2023-04-03T11:50:49;22.60;68.70
2363;DHT22;64265;51.664;7.626;2023-04-03T11:53:30;22.60;68.40
2363;DHT22;64265;51.664;7.626;2023-04-03T11:56:01;22.60;69.20
2363;DHT22;64265;51.664;7.626;2023-04-03T11:58:30;22.60;68.30
2363;DHT22;64265;51.664;7.626;2023-04-03T12:01:08;22.60;68.30
2363;DHT22;64265;51.664;7.626;2023-04-03T12:03:58;22.70;68.40
2363;DHT22;64265;51.664;7.626;2023-04-03T12:06:52;22.70;68.30
2363;DHT22;64265;51.664;7.626;2023-04-03T12:09:25;22.70;68.10
2363;DHT22;64265;51.664;7.626;2023-04-03T12:11:55;22.70;68.50
2363;DHT22;64265;51.664;7.626;2023-04-03T12:14:24;22.70;68.40
2363;DHT22;64265;51.664;7.626;2023-04-03T12:16:52;22.70;68.40
2363;DHT22;64265;51.664;7.626;2023-04-03T12:19:36;22.70;68.30
2363;DHT22;64265;51.664;7.626;2023-04-03T12:22:14;22.70;68.20
2363;DHT22;64265;51.664;7.626;2023-04-03T12:24:42;22.70;68.40
2363;DHT22;64265;51.664;7.626;2023-04-03T12:27:34;22.70;68.30
2363;DHT22;64265;51.664;7.626;2023-04-03T12:30:12;22.70;68.20
2363;DHT22;64265;51.664;7.626;2023-04-03T12:33:09;22.70;68.30
2363;DHT22;64265;51.664;7.626;2023-04-03T12:35:43;22.80;68.10
2363;DHT22;64265;51.664;7.626;2023-04-03T12:38:20;22.70;68.10
2363;DHT22;64265;51.664;7.626;2023-04-03T12:40:53;22.70;68.10
2363;DHT22;64265;51.664;7.626;2023-04-03T12:43:36;22.80;68.40
2363;DHT22;64265;51.664;7.626;2023-04-03T12:46:12;22.80;69.00
2363;DHT22;64265;51.664;7.626;2023-04-03T12:48:48;22.70;68.10
2363;DHT22;64265;51.664;7.626;2023-04-03T12:51:17;22.80;68.20
2363;DHT22;64265;51.664;7.626;2023-04-03T12:53:45;22.70;67.80
2363;DHT22;64265;51.664;7.626;2023-04-03T12:56:21;22.60;67.70
2363;DHT22;64265;51.664;7.626;2023-04-03T12:58:51;22.60;68.00
2363;DHT22;64265;51.664;7.626;2023-04-03T13:01:21;22.50;68.10
2363;DHT22;64265;51.664;7.626;2023-04-03T13:03:49;22.50;68.10
2363;DHT22;64265;51.664;7.626;2023-04-03T13:06:19;22.50;67.90
2363;DHT22;64265;51.664;7.626;2023-04-03T13:08:52;22.50;68.70
2363;DHT22;64265;51.664;7.626;2023-04-03T13:11:20;22.50;68.10
2363;DHT22;64265;51.664;7.626;2023-04-03T13:13:56;22.40;67.80
2363;DHT22;64265;51.664;7.626;2023-04-03T13:16:23;22.40;67.70
2363;DHT22;64265;51.664;7.626;2023-04-03T13:18:51;22.40;67.60
2363;DHT22;64265;51.664;7.626;2023-04-03T13:21:20;22.40;67.70
2363;DHT22;64265;51.664;7.626;2023-04-03T13:23:50;22.40;68.40
2363;DHT22;64265;51.664;7.626;2023-04-03T13:26:20;22.40;67.50
2363;DHT22;64265;51.664;7.626;2023-04-03T13:28:47;22.40;67.60
2363;DHT22;64265;51.664;7.626;2023-04-03T13:31:22;22.40;67.60
2363;DHT22;64265;51.664;7.626;2023-04-03T13:33:57;22.30;67.30
2363;DHT22;64265;51.664;7.626;2023-04-03T13:36:27;22.40;67.60
2363;DHT22;64265;51.664;7.626;2023-04-03T13:39:02;22.40;67.40
2363;DHT22;64265;51.664;7.626;2023-04-03T13:41:31;22.30;67.30
2363;DHT22;64265;51.664;7.626;2023-04-03T13:44:17;22.30;67.40
2363;DHT22;64265;51.664;7.626;2023-04-03T13:46:45;22.30;67.00
2363;DHT22;64265;51.664;7.626;2023-04-03T13:49:29;22.30;67.20
2363;DHT22;64265;51.664;7.626;2023-04-03T13:51:56;22.30;66.50
2363;DHT22;64265;51.664;7.626;2023-04-03T13:54:28;22.20;59.60
2363;DHT22;64265;51.664;7.626;2023-04-03T13:56:57;21.90;57.60
2363;DHT22;64265;51.664;7.626;2023-04-03T13:59:28;21.70;58.70
2363;DHT22;64265;51.664;7.626;2023-04-03T14:02:14;21.90;59.20
2363;DHT22;64265;51.664;7.626;2023-04-03T14:04:48;22.00;60.00
2363;DHT22;64265;51.664;7.626;2023-04-03T14:07:17;22.10;60.00
2363;DHT22;64265;51.664;7.626;2023-04-03T14:09:45;22.10;60.40
2363;DHT22;64265;51.664;7.626;2023-04-03T14:12:15;22.10;60.90
2363;DHT22;64265;51.664;7.626;2023-04-03T14:14:42;22.20;61.30
2363;DHT22;64265;51.664;7.626;2023-04-03T14:17:14;22.20;61.70
2363;DHT22;64265;51.664;7.626;2023-04-03T14:19:42;22.20;61.90
2363;DHT22;64265;51.664;7.626;2023-04-03T14:22:15;22.20;62.10
2363;DHT22;64265;51.664;7.626;2023-04-03T14:24:42;22.20;62.30
2363;DHT22;64265;51.664;7.626;2023-04-03T14:27:16;22.20;62.50
2363;DHT22;64265;51.664;7.626;2023-04-03T14:29:44;22.20;62.80
2363;DHT22;64265;51.664;7.626;2023-04-03T14:32:13;22.20;63.70
2363;DHT22;64265;51.664;7.626;2023-04-03T14:34:40;22.20;63.20
2363;DHT22;64265;51.664;7.626;2023-04-03T14:37:11;22.20;63.40
2363;DHT22;64265;51.664;7.626;2023-04-03T14:39:38;22.10;63.50
2363;DHT22;64265;51.664;7.626;2023-04-03T14:42:05;22.10;63.70
2363;DHT22;64265;51.664;7.626;2023-04-03T14:44:33;22.10;63.70
2363;DHT22;64265;51.664;7.626;2023-04-03T14:47:00;22.10;63.90
2363;DHT22;64265;51.664;7.626;2023-04-03T14:49:28;22.20;64.10
2363;DHT22;64265;51.664;7.626;2023-04-03T14:51:56;22.20;64.00
2363;DHT22;64265;51.664;7.626;2023-04-03T14:54:23;22.20;63.90
2363;DHT22;64265;51.664;7.626;2023-04-03T14:56:53;22.20;63.90
2363;DHT22;64265;51.664;7.626;2023-04-03T14:59:20;22.20;63.90
2363;DHT22;64265;51.664;7.626;2023-04-03T15:01:48;22.20;63.90
2363;DHT22;64265;51.664;7.626;2023-04-03T15:04:17;22.10;64.20
2363;DHT22;64265;51.664;7.626;2023-04-03T15:06:46;22.10;64.30
2363;DHT22;64265;51.664;7.626;2023-04-03T15:09:19;22.10;64.50
2363;DHT22;64265;51.664;7.626;2023-04-03T15:11:47;22.20;64.90
2363;DHT22;64265;51.664;7.626;2023-04-03T15:14:13;22.10;65.00
2363;DHT22;64265;51.664;7.626;2023-04-03T15:16:40;22.10;66.20
2363;DHT22;64265;51.664;7.626;2023-04-03T15:19:07;22.10;65.60
2363;DHT22;64265;51.664;7.626;2023-04-03T15:21:34;22.10;65.80
2363;DHT22;64265;51.664;7.626;2023-04-03T15:24:02;22.10;65.90
2363;DHT22;64265;51.664;7.626;2023-04-03T15:26:29;22.10;66.20
2363;DHT22;64265;51.664;7.626;2023-04-03T15:28:56;22.20;66.30
2363;DHT22;64265;51.664;7.626;2023-04-03T15:31:23;22.20;66.40
2363;DHT22;64265;51.664;7.626;2023-04-03T15:33:50;22.20;66.40
2363;DHT22;64265;51.664;7.626;2023-04-03T15:36:16;22.20;66.50
2363;DHT22;64265;51.664;7.626;2023-04-03T15:38:43;22.30;66.50
2363;DHT22;64265;51.664;7.626;2023-04-03T15:41:11;22.30;66.60
2363;DHT22;64265;51.664;7.626;2023-04-03T15:43:38;22.30;66.70
2363;DHT22;64265;51.664;7.626;2023-04-03T15:46:05;22.40;66.80
2363;DHT22;64265;51.664;7.626;2023-04-03T15:48:32;22.30;66.60
2363;DHT22;64265;51.664;7.626;2023-04-03T15:51:00;22.40;66.80
2363;DHT22;64265;51.664;7.626;2023-04-03T15:53:26;22.40;66.80
2363;DHT22;64265;51.664;7.626;2023-04-03T15:55:53;22.40;66.80
2363;DHT22;64265;51.664;7.626;2023-04-03T15:58:21;22.40;66.70
2363;DHT22;64265;51.664;7.626;2023-04-03T16:00:48;22.40;66.70
2363;DHT22;64265;51.664;7.626;2023-04-03T16:03:17;22.40;66.70
2363;DHT22;64265;51.664;7.626;2023-04-03T16:05:44;22.40;66.70